sensor_id;sensor_type;location;lat;lon;timestamp;temperature;humidity
69324;DHT22;56470;47.350;8.718;2022-11-15T00:01:32;8.68;78.47
69324;DHT22;56470;47.350;8.718;2022-11-15T00:03:57;8.60;78.40
69324;DHT22;56470;47.350;8.718;2022-11-15T00:06:22;8.61;78.52
69324;DHT22;56470;47.350;8.718;2022-11-15T00:08:48;8.63;78.52
69324;DHT22;56470;47.350;8.718;2022-11-15T00:11:13;8.61;78.44
69324;DHT22;56470;47.350;8.718;2022-11-15T00:13:40;8.60;78.65
69324;DHT22;56470;47.350;8.718;2022-11-15T00:16:05;8.61;78.71
69324;DHT22;56470;47.350;8.718;2022-11-15T00:18:30;8.64;78.63
69324;DHT22;56470;47.350;8.718;2022-11-15T00:21:03;8.64;78.41
69324;DHT22;56470;47.350;8.718;2022-11-15T00:23:29;8.70;78.41
69324;DHT22;56470;47.350;8.718;2022-11-15T00:25:57;8.67;78.25
69324;DHT22;56470;47.350;8.718;2022-11-15T00:28:23;8.67;78.16
69324;DHT22;56470;47.350;8.718;2022-11-15T00:30:49;8.61;78.25
69324;DHT22;56470;47.350;8.718;2022-11-15T00:33:14;8.60;78.32
69324;DHT22;56470;47.350;8.718;2022-11-15T00:35:39;8.59;78.49
69324;DHT22;56470;47.350;8.718;2022-11-15T00:38:05;8.63;78.52
69324;DHT22;56470;47.350;8.718;2022-11-15T00:40:30;8.67;78.36
69324;DHT22;56470;47.350;8.718;2022-11-15T00:42:56;8.68;78.31
69324;DHT22;56470;47.350;8.718;2022-11-15T00:45:21;8.67;78.08
69324;DHT22;56470;47.350;8.718;2022-11-15T00:47:46;8.60;78.11
69324;DHT22;56470;47.350;8.718;2022-11-15T00:50:12;8.56;78.20
69324;DHT22;56470;47.350;8.718;2022-11-15T00:52:38;8.57;78.26
69324;DHT22;56470;47.350;8.718;2022-11-15T00:55:04;8.57;78.25
69324;DHT22;56470;47.350;8.718;2022-11-15T00:57:29;8.54;78.16
69324;DHT22;56470;47.350;8.718;2022-11-15T00:59:55;8.49;78.15
69324;DHT22;56470;47.350;8.718;2022-11-15T01:02:20;8.46;78.12
69324;DHT22;56470;47.350;8.718;2022-11-15T01:04:46;8.43;78.25
69324;DHT22;56470;47.350;8.718;2022-11-15T01:07:11;8.48;78.30
69324;DHT22;56470;47.350;8.718;2022-11-15T01:09:37;8.48;78.34
69324;DHT22;56470;47.350;8.718;2022-11-15T01:12:02;8.50;78.39
69324;DHT22;56470;47.350;8.718;2022-11-15T01:14:28;8.48;78.45
69324;DHT22;56470;47.350;8.718;2022-11-15T01:16:53;8.48;78.53
69324;DHT22;56470;47.350;8.718;2022-11-15T01:19:18;8.50;78.45
69324;DHT22;56470;47.350;8.718;2022-11-15T01:21:44;8.48;78.40
69324;DHT22;56470;47.350;8.718;2022-11-15T01:24:12;8.46;78.49
69324;DHT22;56470;47.350;8.718;2022-11-15T01:26:38;8.45;78.62
69324;DHT22;56470;47.350;8.718;2022-11-15T01:29:03;8.43;78.45
69324;DHT22;56470;47.350;8.718;2022-11-15T01:31:29;8.33;78.48
69324;DHT22;56470;47.350;8.718;2022-11-15T01:33:54;8.21;78.93
69324;DHT22;56470;47.350;8.718;2022-11-15T01:36:21;8.14;79.25
69324;DHT22;56470;47.350;8.718;2022-11-15T01:38:52;8.14;79.30
69324;DHT22;56470;47.350;8.718;2022-11-15T01:41:21;8.16;79.28
69324;DHT22;56470;47.350;8.718;2022-11-15T01:43:51;8.20;79.35
69324;DHT22;56470;47.350;8.718;2022-11-15T01:46:24;8.26;79.26
69324;DHT22;56470;47.350;8.718;2022-11-15T01:48:52;8.32;79.20
69324;DHT22;56470;47.350;8.718;2022-11-15T01:51:20;8.38;79.14
69324;DHT22;56470;47.350;8.718;2022-11-15T01:53:52;8.42;79.07
69324;DHT22;56470;47.350;8.718;2022-11-15T01:56:21;8.46;79.07
69324;DHT22;56470;47.350;8.718;2022-11-15T01:58:47;8.53;79.03
69324;DHT22;56470;47.350;8.718;2022-11-15T02:01:13;8.56;78.97
69324;DHT22;56470;47.350;8.718;2022-11-15T02:03:58;8.60;78.81
69324;DHT22;56470;47.350;8.718;2022-11-15T02:06:24;8.60;78.95
69324;DHT22;56470;47.350;8.718;2022-11-15T02:08:50;8.63;78.82
69324;DHT22;56470;47.350;8.718;2022-11-15T02:11:16;8.63;78.75
69324;DHT22;56470;47.350;8.718;2022-11-15T02:13:41;8.64;78.66
69324;DHT22;56470;47.350;8.718;2022-11-15T02:16:14;8.57;78.53
69324;DHT22;56470;47.350;8.718;2022-11-15T02:19:18;8.50;78.58
69324;DHT22;56470;47.350;8.718;2022-11-15T02:22:30;8.45;78.74
69324;DHT22;56470;47.350;8.718;2022-11-15T02:33:21;8.50;78.85
69324;DHT22;56470;47.350;8.718;2022-11-15T02:36:18;8.54;78.83
69324;DHT22;56470;47.350;8.718;2022-11-15T02:41:52;8.57;78.70
69324;DHT22;56470;47.350;8.718;2022-11-15T02:44:26;8.61;78.73
69324;DHT22;56470;47.350;8.718;2022-11-15T02:46:55;8.63;78.74
69324;DHT22;56470;47.350;8.718;2022-11-15T02:49:54;8.61;78.65
69324;DHT22;56470;47.350;8.718;2022-11-15T02:52:21;8.66;78.71
69324;DHT22;56470;47.350;8.718;2022-11-15T02:54:55;8.60;78.69
69324;DHT22;56470;47.350;8.718;2022-11-15T03:00:12;8.61;78.72
69324;DHT22;56470;47.350;8.718;2022-11-15T03:11:10;8.63;78.65
69324;DHT22;56470;47.350;8.718;2022-11-15T03:16:48;8.66;78.79
69324;DHT22;56470;47.350;8.718;2022-11-15T03:19:35;8.66;78.62
69324;DHT22;56470;47.350;8.718;2022-11-15T03:22:07;8.64;78.72
69324;DHT22;56470;47.350;8.718;2022-11-15T03:24:36;8.64;78.75
69324;DHT22;56470;47.350;8.718;2022-11-15T03:27:05;8.61;78.83
69324;DHT22;56470;47.350;8.718;2022-11-15T03:29:34;8.56;78.76
69324;DHT22;56470;47.350;8.718;2022-11-15T03:32:05;8.50;78.68
69324;DHT22;56470;47.350;8.718;2022-11-15T03:34:41;8.42;78.73
69324;DHT22;56470;47.350;8.718;2022-11-15T03:37:10;8.36;78.75
69324;DHT22;56470;47.350;8.718;2022-11-15T03:39:36;8.33;78.82
69324;DHT22;56470;47.350;8.718;2022-11-15T03:42:12;8.32;78.87
69324;DHT22;56470;47.350;8.718;2022-11-15T03:44:52;8.31;78.82
69324;DHT22;56470;47.350;8.718;2022-11-15T03:47:45;8.35;78.87
69324;DHT22;56470;47.350;8.718;2022-11-15T03:50:11;8.36;78.85
69324;DHT22;56470;47.350;8.718;2022-11-15T03:52:39;8.32;78.79
69324;DHT22;56470;47.350;8.718;2022-11-15T03:55:07;8.31;78.79
69324;DHT22;56470;47.350;8.718;2022-11-15T03:57:33;8.29;78.88
69324;DHT22;56470;47.350;8.718;2022-11-15T03:59:58;8.28;78.77
69324;DHT22;56470;47.350;8.718;2022-11-15T04:02:24;8.25;78.87
69324;DHT22;56470;47.350;8.718;2022-11-15T04:04:49;8.29;78.97
69324;DHT22;56470;47.350;8.718;2022-11-15T04:07:15;8.32;78.91
69324;DHT22;56470;47.350;8.718;2022-11-15T04:09:40;8.38;78.91
69324;DHT22;56470;47.350;8.718;2022-11-15T04:12:24;8.36;78.81
69324;DHT22;56470;47.350;8.718;2022-11-15T04:14:57;8.39;78.80
69324;DHT22;56470;47.350;8.718;2022-11-15T04:17:39;8.40;78.65
69324;DHT22;56470;47.350;8.718;2022-11-15T04:22:57;8.43;78.55
69324;DHT22;56470;47.350;8.718;2022-11-15T04:25:43;8.42;78.62
69324;DHT22;56470;47.350;8.718;2022-11-15T04:28:09;8.36;78.55
69324;DHT22;56470;47.350;8.718;2022-11-15T04:30:34;8.39;78.69
69324;DHT22;56470;47.350;8.718;2022-11-15T04:33:00;8.42;78.72
69324;DHT22;56470;47.350;8.718;2022-11-15T04:35:25;8.48;78.69
69324;DHT22;56470;47.350;8.718;2022-11-15T04:37:51;8.40;78.74
69324;DHT22;56470;47.350;8.718;2022-11-15T04:40:16;8.42;79.01
69324;DHT22;56470;47.350;8.718;2022-11-15T04:42:42;8.43;78.91
69324;DHT22;56470;47.350;8.718;2022-11-15T04:45:08;8.46;78.81
69324;DHT22;56470;47.350;8.718;2022-11-15T04:47:34;8.49;78.66
69324;DHT22;56470;47.350;8.718;2022-11-15T04:49:59;8.48;78.72
69324;DHT22;56470;47.350;8.718;2022-11-15T04:52:25;8.45;78.66
69324;DHT22;56470;47.350;8.718;2022-11-15T04:54:50;8.39;78.68
69324;DHT22;56470;47.350;8.718;2022-11-15T04:57:20;8.39;78.71
69324;DHT22;56470;47.350;8.718;2022-11-15T04:59:46;8.38;78.69
69324;DHT22;56470;47.350;8.718;2022-11-15T05:02:11;8.32;78.65
69324;DHT22;56470;47.350;8.718;2022-11-15T05:04:37;8.22;78.59
69324;DHT22;56470;47.350;8.718;2022-11-15T05:07:02;8.21;78.74
69324;DHT22;56470;47.350;8.718;2022-11-15T05:09:33;8.16;78.78
69324;DHT22;56470;47.350;8.718;2022-11-15T05:12:00;8.16;78.68
69324;DHT22;56470;47.350;8.718;2022-11-15T05:14:26;8.12;78.54
69324;DHT22;56470;47.350;8.718;2022-11-15T05:16:51;8.06;78.53
69324;DHT22;56470;47.350;8.718;2022-11-15T05:19:17;8.05;78.43
69324;DHT22;56470;47.350;8.718;2022-11-15T05:21:42;8.01;78.45
69324;DHT22;56470;47.350;8.718;2022-11-15T05:24:10;7.97;78.45
69324;DHT22;56470;47.350;8.718;2022-11-15T05:26:36;7.91;78.45
69324;DHT22;56470;47.350;8.718;2022-11-15T05:29:02;7.88;78.10
69324;DHT22;56470;47.350;8.718;2022-11-15T05:31:27;7.80;78.19
69324;DHT22;56470;47.350;8.718;2022-11-15T05:33:54;7.77;78.28
69324;DHT22;56470;47.350;8.718;2022-11-15T05:38:57;7.80;78.58
69324;DHT22;56470;47.350;8.718;2022-11-15T05:41:34;7.81;78.39
69324;DHT22;56470;47.350;8.718;2022-11-15T05:44:01;7.74;78.10
69324;DHT22;56470;47.350;8.718;2022-11-15T05:46:28;7.67;78.01
69324;DHT22;56470;47.350;8.718;2022-11-15T05:48:54;7.58;78.02
69324;DHT22;56470;47.350;8.718;2022-11-15T05:51:21;7.43;78.03
69324;DHT22;56470;47.350;8.718;2022-11-15T05:53:48;7.31;78.29
69324;DHT22;56470;47.350;8.718;2022-11-15T05:56:14;7.31;78.69
69324;DHT22;56470;47.350;8.718;2022-11-15T05:58:40;7.36;78.82
69324;DHT22;56470;47.350;8.718;2022-11-15T06:01:05;7.50;78.83
69324;DHT22;56470;47.350;8.718;2022-11-15T06:03:31;7.60;78.77
69324;DHT22;56470;47.350;8.718;2022-11-15T06:05:56;7.71;78.67
69324;DHT22;56470;47.350;8.718;2022-11-15T06:08:22;7.76;78.64
69324;DHT22;56470;47.350;8.718;2022-11-15T06:10:47;7.77;78.52
69324;DHT22;56470;47.350;8.718;2022-11-15T06:13:13;7.77;78.42
69324;DHT22;56470;47.350;8.718;2022-11-15T06:15:38;7.80;78.21
69324;DHT22;56470;47.350;8.718;2022-11-15T06:18:03;7.78;78.04
69324;DHT22;56470;47.350;8.718;2022-11-15T06:20:30;7.71;78.05
69324;DHT22;56470;47.350;8.718;2022-11-15T06:23:00;7.74;78.15
69324;DHT22;56470;47.350;8.718;2022-11-15T06:25:26;7.76;78.18
69324;DHT22;56470;47.350;8.718;2022-11-15T06:27:56;7.83;78.18
69324;DHT22;56470;47.350;8.718;2022-11-15T06:30:23;7.84;78.11
69324;DHT22;56470;47.350;8.718;2022-11-15T06:32:48;7.81;78.12
69324;DHT22;56470;47.350;8.718;2022-11-15T06:35:14;7.77;77.91
69324;DHT22;56470;47.350;8.718;2022-11-15T06:37:40;7.74;77.96
69324;DHT22;56470;47.350;8.718;2022-11-15T06:40:07;7.73;77.90
69324;DHT22;56470;47.350;8.718;2022-11-15T06:42:33;7.67;78.06
69324;DHT22;56470;47.350;8.718;2022-11-15T06:44:58;7.66;77.96
69324;DHT22;56470;47.350;8.718;2022-11-15T06:47:24;7.55;77.88
69324;DHT22;56470;47.350;8.718;2022-11-15T06:49:49;7.49;78.05
69324;DHT22;56470;47.350;8.718;2022-11-15T06:52:14;7.56;78.27
69324;DHT22;56470;47.350;8.718;2022-11-15T06:54:40;7.65;78.28
69324;DHT22;56470;47.350;8.718;2022-11-15T06:57:05;7.78;78.40
69324;DHT22;56470;47.350;8.718;2022-11-15T06:59:30;7.95;78.55
69324;DHT22;56470;47.350;8.718;2022-11-15T07:01:56;8.08;78.16
69324;DHT22;56470;47.350;8.718;2022-11-15T07:04:21;8.18;77.88
69324;DHT22;56470;47.350;8.718;2022-11-15T07:06:47;8.25;77.77
69324;DHT22;56470;47.350;8.718;2022-11-15T07:09:13;8.35;77.79
69324;DHT22;56470;47.350;8.718;2022-11-15T07:11:38;8.45;77.83
69324;DHT22;56470;47.350;8.718;2022-11-15T07:14:03;8.60;77.65
69324;DHT22;56470;47.350;8.718;2022-11-15T07:16:28;8.77;77.61
69324;DHT22;56470;47.350;8.718;2022-11-15T07:18:54;9.00;77.20
69324;DHT22;56470;47.350;8.718;2022-11-15T07:21:19;9.19;77.03
69324;DHT22;56470;47.350;8.718;2022-11-15T07:23:44;9.40;76.74
69324;DHT22;56470;47.350;8.718;2022-11-15T07:26:10;9.57;76.47
69324;DHT22;56470;47.350;8.718;2022-11-15T07:28:35;9.73;76.17
69324;DHT22;56470;47.350;8.718;2022-11-15T07:31:06;9.81;75.79
69324;DHT22;56470;47.350;8.718;2022-11-15T07:33:31;9.88;75.62
69324;DHT22;56470;47.350;8.718;2022-11-15T07:36:01;9.90;75.50
69324;DHT22;56470;47.350;8.718;2022-11-15T07:38:29;9.85;75.31
69324;DHT22;56470;47.350;8.718;2022-11-15T07:41:00;9.78;75.17
69324;DHT22;56470;47.350;8.718;2022-11-15T07:43:26;9.67;74.97
69324;DHT22;56470;47.350;8.718;2022-11-15T07:45:53;9.57;75.03
69324;DHT22;56470;47.350;8.718;2022-11-15T07:48:19;9.49;75.35
69324;DHT22;56470;47.350;8.718;2022-11-15T07:50:44;9.44;75.61
69324;DHT22;56470;47.350;8.718;2022-11-15T07:53:10;9.46;75.82
69324;DHT22;56470;47.350;8.718;2022-11-15T07:55:40;9.46;75.93
69324;DHT22;56470;47.350;8.718;2022-11-15T07:58:07;9.51;75.91
69324;DHT22;56470;47.350;8.718;2022-11-15T08:00:33;9.51;75.96
69324;DHT22;56470;47.350;8.718;2022-11-15T08:03:13;9.53;76.00
69324;DHT22;56470;47.350;8.718;2022-11-15T08:05:41;9.56;76.18
69324;DHT22;56470;47.350;8.718;2022-11-15T08:08:08;9.63;76.20
69324;DHT22;56470;47.350;8.718;2022-11-15T08:10:34;9.74;76.42
69324;DHT22;56470;47.350;8.718;2022-11-15T08:13:02;9.92;76.32
69324;DHT22;56470;47.350;8.718;2022-11-15T08:15:29;10.09;75.91
69324;DHT22;56470;47.350;8.718;2022-11-15T08:18:02;10.26;75.38
69324;DHT22;56470;47.350;8.718;2022-11-15T08:20:32;10.36;74.97
69324;DHT22;56470;47.350;8.718;2022-11-15T08:22:58;10.47;74.64
69324;DHT22;56470;47.350;8.718;2022-11-15T08:25:24;10.49;74.45
69324;DHT22;56470;47.350;8.718;2022-11-15T08:27:53;10.50;74.34
69324;DHT22;56470;47.350;8.718;2022-11-15T08:30:19;10.45;74.35
69324;DHT22;56470;47.350;8.718;2022-11-15T08:32:45;10.47;74.49
69324;DHT22;56470;47.350;8.718;2022-11-15T08:35:13;10.49;74.71
69324;DHT22;56470;47.350;8.718;2022-11-15T08:37:39;10.61;74.62
69324;DHT22;56470;47.350;8.718;2022-11-15T08:40:05;10.70;74.56
69324;DHT22;56470;47.350;8.718;2022-11-15T08:42:30;10.71;74.23
69324;DHT22;56470;47.350;8.718;2022-11-15T08:44:56;10.73;73.62
69324;DHT22;56470;47.350;8.718;2022-11-15T08:47:21;10.71;73.83
69324;DHT22;56470;47.350;8.718;2022-11-15T08:49:47;10.78;74.04
69324;DHT22;56470;47.350;8.718;2022-11-15T08:52:13;10.82;73.80
69324;DHT22;56470;47.350;8.718;2022-11-15T08:54:39;10.82;74.10
69324;DHT22;56470;47.350;8.718;2022-11-15T08:57:04;10.82;74.34
69324;DHT22;56470;47.350;8.718;2022-11-15T08:59:29;10.90;74.21
69324;DHT22;56470;47.350;8.718;2022-11-15T09:01:55;10.90;74.15
69324;DHT22;56470;47.350;8.718;2022-11-15T09:04:20;10.94;74.26
69324;DHT22;56470;47.350;8.718;2022-11-15T09:06:45;10.92;74.24
69324;DHT22;56470;47.350;8.718;2022-11-15T09:09:11;10.97;74.34
69324;DHT22;56470;47.350;8.718;2022-11-15T09:11:36;11.02;74.19
69324;DHT22;56470;47.350;8.718;2022-11-15T09:14:01;11.04;74.12
69324;DHT22;56470;47.350;8.718;2022-11-15T09:16:27;11.07;74.00
69324;DHT22;56470;47.350;8.718;2022-11-15T09:18:53;11.09;74.11
69324;DHT22;56470;47.350;8.718;2022-11-15T09:21:19;11.14;74.10
69324;DHT22;56470;47.350;8.718;2022-11-15T09:23:45;11.18;74.00
69324;DHT22;56470;47.350;8.718;2022-11-15T09:26:10;11.20;73.92
69324;DHT22;56470;47.350;8.718;2022-11-15T09:28:36;11.25;73.92
69324;DHT22;56470;47.350;8.718;2022-11-15T09:31:04;11.29;73.65
69324;DHT22;56470;47.350;8.718;2022-11-15T09:33:30;11.27;73.45
69324;DHT22;56470;47.350;8.718;2022-11-15T09:36:00;11.32;73.22
69324;DHT22;56470;47.350;8.718;2022-11-15T09:38:26;11.32;73.10
69324;DHT22;56470;47.350;8.718;2022-11-15T09:41:05;11.36;73.21
69324;DHT22;56470;47.350;8.718;2022-11-15T09:51:27;11.36;73.19
69324;DHT22;56470;47.350;8.718;2022-11-15T09:56:36;11.42;73.21
69324;DHT22;56470;47.350;8.718;2022-11-15T10:04:53;11.33;73.51
69324;DHT22;56470;47.350;8.718;2022-11-15T10:07:25;11.33;73.63
69324;DHT22;56470;47.350;8.718;2022-11-15T10:09:55;11.32;73.67
69324;DHT22;56470;47.350;8.718;2022-11-15T10:12:22;11.32;73.75
69324;DHT22;56470;47.350;8.718;2022-11-15T10:14:50;11.27;73.78
69324;DHT22;56470;47.350;8.718;2022-11-15T10:20:17;11.30;73.70
69324;DHT22;56470;47.350;8.718;2022-11-15T10:22:47;11.33;73.78
69324;DHT22;56470;47.350;8.718;2022-11-15T10:25:26;11.36;73.55
69324;DHT22;56470;47.350;8.718;2022-11-15T10:27:55;11.42;73.72
69324;DHT22;56470;47.350;8.718;2022-11-15T10:30:22;11.42;73.64
69324;DHT22;56470;47.350;8.718;2022-11-15T10:32:50;11.42;73.33
69324;DHT22;56470;47.350;8.718;2022-11-15T10:35:22;11.42;72.88
69324;DHT22;56470;47.350;8.718;2022-11-15T10:37:48;11.43;72.95
69324;DHT22;56470;47.350;8.718;2022-11-15T10:40:21;11.42;72.83
69324;DHT22;56470;47.350;8.718;2022-11-15T10:42:47;11.43;72.78
69324;DHT22;56470;47.350;8.718;2022-11-15T10:45:29;11.44;72.13
69324;DHT22;56470;47.350;8.718;2022-11-15T10:48:19;11.47;71.71
69324;DHT22;56470;47.350;8.718;2022-11-15T10:50:46;11.49;72.56
69324;DHT22;56470;47.350;8.718;2022-11-15T10:53:25;11.50;72.20
69324;DHT22;56470;47.350;8.718;2022-11-15T10:55:55;11.52;72.64
69324;DHT22;56470;47.350;8.718;2022-11-15T11:01:10;11.52;72.73
69324;DHT22;56470;47.350;8.718;2022-11-15T11:03:37;11.59;72.93
69324;DHT22;56470;47.350;8.718;2022-11-15T11:06:17;11.59;72.58
69324;DHT22;56470;47.350;8.718;2022-11-15T11:09:00;11.59;72.45
69324;DHT22;56470;47.350;8.718;2022-11-15T11:11:45;11.59;72.01
69324;DHT22;56470;47.350;8.718;2022-11-15T11:14:12;11.61;72.85
69324;DHT22;56470;47.350;8.718;2022-11-15T11:16:46;11.60;72.82
69324;DHT22;56470;47.350;8.718;2022-11-15T11:22:05;11.57;72.90
69324;DHT22;56470;47.350;8.718;2022-11-15T11:24:42;11.63;72.93
69324;DHT22;56470;47.350;8.718;2022-11-15T11:30:09;11.56;72.74
69324;DHT22;56470;47.350;8.718;2022-11-15T11:38:31;11.52;73.28
69324;DHT22;56470;47.350;8.718;2022-11-15T11:41:27;11.46;73.47
69324;DHT22;56470;47.350;8.718;2022-11-15T11:44:23;11.49;73.89
69324;DHT22;56470;47.350;8.718;2022-11-15T11:47:00;11.54;73.93
69324;DHT22;56470;47.350;8.718;2022-11-15T11:49:46;11.56;74.15
69324;DHT22;56470;47.350;8.718;2022-11-15T11:52:21;11.64;74.08
69324;DHT22;56470;47.350;8.718;2022-11-15T11:54:51;11.67;74.03
69324;DHT22;56470;47.350;8.718;2022-11-15T11:57:33;11.69;74.28
69324;DHT22;56470;47.350;8.718;2022-11-15T12:02:31;11.73;74.47
69324;DHT22;56470;47.350;8.718;2022-11-15T12:05:35;11.74;74.90
69324;DHT22;56470;47.350;8.718;2022-11-15T12:08:31;11.78;74.33
69324;DHT22;56470;47.350;8.718;2022-11-15T12:11:13;11.82;73.95
69324;DHT22;56470;47.350;8.718;2022-11-15T12:13:40;11.87;73.47
69324;DHT22;56470;47.350;8.718;2022-11-15T12:16:23;11.91;73.32
69324;DHT22;56470;47.350;8.718;2022-11-15T12:18:53;11.91;72.83
69324;DHT22;56470;47.350;8.718;2022-11-15T12:21:44;11.88;70.64
69324;DHT22;56470;47.350;8.718;2022-11-15T12:24:23;11.95;71.36
69324;DHT22;56470;47.350;8.718;2022-11-15T12:27:16;11.92;70.65
69324;DHT22;56470;47.350;8.718;2022-11-15T12:29:51;11.97;70.63
69324;DHT22;56470;47.350;8.718;2022-11-15T12:32:26;11.97;71.22
69324;DHT22;56470;47.350;8.718;2022-11-15T12:34:53;12.01;71.52
69324;DHT22;56470;47.350;8.718;2022-11-15T12:37:46;11.99;71.92
69324;DHT22;56470;47.350;8.718;2022-11-15T12:45:31;11.99;71.96
69324;DHT22;56470;47.350;8.718;2022-11-15T12:58:51;11.91;71.03
69324;DHT22;56470;47.350;8.718;2022-11-15T13:14:59;12.06;71.15
69324;DHT22;56470;47.350;8.718;2022-11-15T13:17:36;12.06;70.51
69324;DHT22;56470;47.350;8.718;2022-11-15T13:22:43;12.09;71.23
69324;DHT22;56470;47.350;8.718;2022-11-15T13:25:46;12.08;70.91
69324;DHT22;56470;47.350;8.718;2022-11-15T13:30:39;12.14;71.69
69324;DHT22;56470;47.350;8.718;2022-11-15T13:33:17;12.14;71.65
69324;DHT22;56470;47.350;8.718;2022-11-15T13:35:49;12.14;71.73
69324;DHT22;56470;47.350;8.718;2022-11-15T13:40:50;12.15;71.59
69324;DHT22;56470;47.350;8.718;2022-11-15T13:46:22;12.16;71.12
69324;DHT22;56470;47.350;8.718;2022-11-15T13:48:54;12.19;71.36
69324;DHT22;56470;47.350;8.718;2022-11-15T13:54:14;12.21;70.88
69324;DHT22;56470;47.350;8.718;2022-11-15T13:56:43;12.19;71.34
69324;DHT22;56470;47.350;8.718;2022-11-15T13:59:19;12.26;71.44
69324;DHT22;56470;47.350;8.718;2022-11-15T14:01:47;12.28;71.53
69324;DHT22;56470;47.350;8.718;2022-11-15T14:04:17;12.28;71.61
69324;DHT22;56470;47.350;8.718;2022-11-15T14:06:46;12.28;71.49
69324;DHT22;56470;47.350;8.718;2022-11-15T14:11:51;12.28;71.29
69324;DHT22;56470;47.350;8.718;2022-11-15T14:14:20;12.28;71.54
69324;DHT22;56470;47.350;8.718;2022-11-15T14:16:48;12.28;71.65
69324;DHT22;56470;47.350;8.718;2022-11-15T14:22:23;12.28;71.34
69324;DHT22;56470;47.350;8.718;2022-11-15T14:25:17;12.26;71.19
69324;DHT22;56470;47.350;8.718;2022-11-15T14:28:09;12.26;71.56
69324;DHT22;56470;47.350;8.718;2022-11-15T14:30:29;12.25;71.57
69324;DHT22;56470;47.350;8.718;2022-11-15T14:32:55;12.25;71.57
69324;DHT22;56470;47.350;8.718;2022-11-15T14:35:21;12.26;71.60
69324;DHT22;56470;47.350;8.718;2022-11-15T14:37:47;12.25;71.63
69324;DHT22;56470;47.350;8.718;2022-11-15T14:40:17;12.25;71.65
69324;DHT22;56470;47.350;8.718;2022-11-15T14:42:48;12.25;71.61
69324;DHT22;56470;47.350;8.718;2022-11-15T14:45:14;12.23;71.62
69324;DHT22;56470;47.350;8.718;2022-11-15T14:47:41;12.25;71.63
69324;DHT22;56470;47.350;8.718;2022-11-15T14:50:11;12.25;71.72
69324;DHT22;56470;47.350;8.718;2022-11-15T14:52:36;12.25;71.73
69324;DHT22;56470;47.350;8.718;2022-11-15T14:55:08;12.25;71.76
69324;DHT22;56470;47.350;8.718;2022-11-15T14:57:35;12.26;71.72
69324;DHT22;56470;47.350;8.718;2022-11-15T15:00:00;12.23;71.62
69324;DHT22;56470;47.350;8.718;2022-11-15T15:02:26;12.26;71.60
69324;DHT22;56470;47.350;8.718;2022-11-15T15:04:52;12.23;71.53
69324;DHT22;56470;47.350;8.718;2022-11-15T15:07:18;12.25;71.45
69324;DHT22;56470;47.350;8.718;2022-11-15T15:09:44;12.26;71.40
69324;DHT22;56470;47.350;8.718;2022-11-15T15:12:19;12.23;71.31
69324;DHT22;56470;47.350;8.718;2022-11-15T15:14:46;12.25;71.38
69324;DHT22;56470;47.350;8.718;2022-11-15T15:17:12;12.26;71.32
69324;DHT22;56470;47.350;8.718;2022-11-15T15:19:37;12.26;71.30
69324;DHT22;56470;47.350;8.718;2022-11-15T15:22:03;12.23;71.30
69324;DHT22;56470;47.350;8.718;2022-11-15T15:24:28;12.23;71.31
69324;DHT22;56470;47.350;8.718;2022-11-15T15:26:54;12.26;71.27
69324;DHT22;56470;47.350;8.718;2022-11-15T15:29:19;12.25;71.26
69324;DHT22;56470;47.350;8.718;2022-11-15T15:31:44;12.23;71.28
69324;DHT22;56470;47.350;8.718;2022-11-15T15:34:10;12.23;71.25
69324;DHT22;56470;47.350;8.718;2022-11-15T15:36:35;12.23;71.16
69324;DHT22;56470;47.350;8.718;2022-11-15T15:39:00;12.21;71.19
69324;DHT22;56470;47.350;8.718;2022-11-15T15:41:26;12.21;71.23
69324;DHT22;56470;47.350;8.718;2022-11-15T15:43:51;12.22;71.27
69324;DHT22;56470;47.350;8.718;2022-11-15T15:46:18;12.19;71.35
69324;DHT22;56470;47.350;8.718;2022-11-15T15:48:45;12.21;71.37
69324;DHT22;56470;47.350;8.718;2022-11-15T15:51:11;12.19;71.43
69324;DHT22;56470;47.350;8.718;2022-11-15T15:53:37;12.18;71.56
69324;DHT22;56470;47.350;8.718;2022-11-15T15:56:02;12.19;71.79
69324;DHT22;56470;47.350;8.718;2022-11-15T15:58:27;12.16;72.05
69324;DHT22;56470;47.350;8.718;2022-11-15T16:00:55;12.12;72.26
69324;DHT22;56470;47.350;8.718;2022-11-15T16:03:43;12.11;72.55
69324;DHT22;56470;47.350;8.718;2022-11-15T16:06:48;12.09;72.96
69324;DHT22;56470;47.350;8.718;2022-11-15T16:09:39;12.09;72.86
69324;DHT22;56470;47.350;8.718;2022-11-15T16:15:47;12.11;73.39
69324;DHT22;56470;47.350;8.718;2022-11-15T16:18:46;12.05;74.80
69324;DHT22;56470;47.350;8.718;2022-11-15T16:57:48;11.52;76.70
69324;DHT22;56470;47.350;8.718;2022-11-15T17:57:00;11.69;77.48
69324;DHT22;56470;47.350;8.718;2022-11-15T18:00:29;11.64;78.10
69324;DHT22;56470;47.350;8.718;2022-11-15T18:03:22;11.64;78.46
69324;DHT22;56470;47.350;8.718;2022-11-15T18:47:29;11.32;79.16
69324;DHT22;56470;47.350;8.718;2022-11-15T19:00:11;11.43;78.44
69324;DHT22;56470;47.350;8.718;2022-11-15T19:06:15;11.35;79.07
69324;DHT22;56470;47.350;8.718;2022-11-15T19:08:54;11.35;78.78
69324;DHT22;56470;47.350;8.718;2022-11-15T19:11:42;11.36;78.66
69324;DHT22;56470;47.350;8.718;2022-11-15T19:14:20;11.40;78.62
69324;DHT22;56470;47.350;8.718;2022-11-15T19:16:52;11.42;78.65
69324;DHT22;56470;47.350;8.718;2022-11-15T19:19:22;11.42;78.63
69324;DHT22;56470;47.350;8.718;2022-11-15T19:21:48;11.44;78.58
69324;DHT22;56470;47.350;8.718;2022-11-15T19:24:25;11.42;78.71
69324;DHT22;56470;47.350;8.718;2022-11-15T19:27:01;11.43;78.71
69324;DHT22;56470;47.350;8.718;2022-11-15T19:29:30;11.44;78.61
69324;DHT22;56470;47.350;8.718;2022-11-15T19:31:55;11.43;78.76
69324;DHT22;56470;47.350;8.718;2022-11-15T19:34:21;11.44;78.72
69324;DHT22;56470;47.350;8.718;2022-11-15T19:36:46;11.43;78.77
69324;DHT22;56470;47.350;8.718;2022-11-15T19:39:13;11.43;78.74
69324;DHT22;56470;47.350;8.718;2022-11-15T19:41:40;11.40;78.71
69324;DHT22;56470;47.350;8.718;2022-11-15T19:44:06;11.40;78.81
69324;DHT22;56470;47.350;8.718;2022-11-15T19:46:32;11.39;78.89
69324;DHT22;56470;47.350;8.718;2022-11-15T19:49:33;11.33;79.44
69324;DHT22;56470;47.350;8.718;2022-11-15T19:52:55;11.35;79.09
69324;DHT22;56470;47.350;8.718;2022-11-15T20:02:21;11.35;78.79
69324;DHT22;56470;47.350;8.718;2022-11-15T20:04:53;11.33;79.00
69324;DHT22;56470;47.350;8.718;2022-11-15T20:07:20;11.33;79.02
69324;DHT22;56470;47.350;8.718;2022-11-15T20:15:55;11.36;78.99
69324;DHT22;56470;47.350;8.718;2022-11-15T20:22:04;11.32;79.01
69324;DHT22;56470;47.350;8.718;2022-11-15T20:25:14;11.27;79.65
69324;DHT22;56470;47.350;8.718;2022-11-15T20:28:44;11.32;79.44
69324;DHT22;56470;47.350;8.718;2022-11-15T20:34:47;11.23;79.35
